Weather History for Mammoth, CA

Change the Weather History Date:

Sunday, December 22, 2013

  Actual Average Record
Temperature  
Mean Temperature 31 °F -  
Max Temperature 50 °F 37 °F 60 °F (2014)
Min Temperature 12 °F 21 °F 3 °F (2011)
Degree Days  
Heating Degree Days 34    
Moisture  
Dew Point 17 °F    
Average Humidity 55    
Maximum Humidity 86    
Minimum Humidity 25    
Precipitation  
Precipitation 0.00 in - - ()
Sea Level Pressure  
Sea Level Pressure 30.31 in    
Wind  
Wind Speed 5 mph (NW)    
Max Wind Speed 14 mph    
Max Gust Speed 26 mph    
Visibility 10 miles    
Events      
Averages and records for this station are not official NWS values.
T = Trace of Precipitation, MM = Missing Value Source: NWS Daily Summary

Daily Weather History Graph

Daily Weather History Graph

Search for Another Location

Airport:

Trip Planner

Search our weather history database for the weather conditions in past years. The results will help you decide how hot, cold, wet, or windy it might be!

Date:

Astronomy

Dec. 22, 2013 Rise Set
Actual Time 7:07 AM PST 4:41 PM PST
Civil Twilight 6:37 AM PST 5:10 PM PST
Nautical Twilight 6:05 AM PST 5:43 PM PST
Astronomical Twilight 5:33 AM PST 6:15 PM PST
Moon 9:52 PM PST (12/22) 10:11 AM PST (12/22)
Length of Visible Light 10h 32m
Length of Day
9h 33m
Waning Gibbous, 76% of the Moon is Illuminated
Dec 22
Waning Gibbous
Dec 25
Last Quarter
Jan 1
New
Jan 7
First Quarter
Jan 15
Full

Hourly Weather History & Observations

Time (PST) Temp. Windchill Dew Point Humidity Pressure Visibility Wind Dir Wind Speed Gust Speed Precip Events Conditions
12:15 AM 24.8 °F 19.1 °F 10.4 °F 54% 30.17 in 10.0 mi North 4.6 mph - N/A   Clear
12:35 AM 21.2 °F 14.9 °F 12.2 °F 68% 30.18 in 10.0 mi North 4.6 mph - N/A   Clear
12:55 AM 23.0 °F 17.0 °F 10.4 °F 59% 30.18 in 10.0 mi North 4.6 mph - N/A   Clear
1:15 AM 21.2 °F 16.4 °F 8.6 °F 58% 30.18 in 10.0 mi North 3.5 mph - N/A   Clear
1:35 AM 21.2 °F - 8.6 °F 58% 30.19 in 10.0 mi Calm Calm - N/A   Clear
1:55 AM 19.4 °F 11.5 °F 8.6 °F 63% 30.19 in 10.0 mi North 5.8 mph - N/A   Clear
2:15 AM 21.2 °F 13.6 °F 8.6 °F 58% 30.20 in 10.0 mi North 5.8 mph - N/A   Clear
2:35 AM 21.2 °F 16.4 °F 8.6 °F 58% 30.20 in 10.0 mi NNW 3.5 mph - N/A   Clear
2:55 AM 21.2 °F 13.6 °F 8.6 °F 58% 30.20 in 10.0 mi NNW 5.8 mph - N/A   Clear
3:15 AM 15.8 °F 10.2 °F 8.6 °F 73% 30.21 in 10.0 mi West 3.5 mph - N/A   Clear
3:35 AM 12.2 °F 2.9 °F 6.8 °F 79% 30.21 in 10.0 mi North 5.8 mph - N/A   Clear
3:55 AM 21.2 °F 12.6 °F 6.8 °F 54% 30.21 in 10.0 mi North 6.9 mph - N/A   Clear
4:15 AM 21.2 °F - 6.8 °F 54% 30.21 in 10.0 mi Calm Calm - N/A   Clear
4:35 AM 24.8 °F - 6.8 °F 46% 30.21 in 10.0 mi North - - N/A   Clear
4:55 AM 21.2 °F - 6.8 °F 54% 30.21 in 10.0 mi Calm Calm - N/A   Clear
5:15 AM 17.6 °F - 14.0 °F 86% 30.22 in 10.0 mi Calm Calm - N/A   Clear
5:35 AM 17.6 °F 12.3 °F 10.4 °F 73% 30.23 in 10.0 mi North 3.5 mph - N/A   Clear
5:55 AM 21.2 °F 16.4 °F 6.8 °F 54% 30.23 in 10.0 mi North 3.5 mph - N/A   Clear
6:15 AM 24.8 °F 16.9 °F 8.6 °F 50% 30.24 in 10.0 mi North 6.9 mph - N/A   Clear
6:35 AM 24.8 °F 17.9 °F 8.6 °F 50% 30.25 in 10.0 mi North 5.8 mph - N/A   Clear
6:55 AM 26.6 °F - 6.8 °F 43% 30.25 in 10.0 mi Calm Calm - N/A   Clear
7:15 AM 28.4 °F - 8.6 °F 43% 30.26 in 10.0 mi Calm Calm - N/A   Clear
7:35 AM 24.8 °F 20.5 °F 10.4 °F 54% 30.27 in 10.0 mi North 3.5 mph - N/A   Clear
7:55 AM 24.8 °F - 10.4 °F 54% 30.27 in 10.0 mi Calm Calm - N/A   Clear
8:15 AM 26.6 °F - 12.2 °F 55% 30.28 in 10.0 mi Calm Calm - N/A   Clear
8:35 AM 32.0 °F 28.7 °F 14.0 °F 48% 30.29 in 10.0 mi North 3.5 mph - N/A   Clear
8:55 AM 35.6 °F 31.7 °F 15.8 °F 44% 30.30 in 10.0 mi NNW 4.6 mph - N/A   Clear
9:15 AM 42.8 °F 36.2 °F 10.4 °F 27% 30.31 in 10.0 mi WNW 12.7 mph - N/A   Clear
9:35 AM 44.6 °F 39.7 °F 10.4 °F 25% 30.33 in 10.0 mi WNW 9.2 mph - N/A   Clear
9:55 AM 44.6 °F 39.2 °F 12.2 °F 27% 30.34 in 10.0 mi WNW 10.4 mph - N/A   Clear
10:15 AM 46.4 °F 40.4 °F 14.0 °F 27% 30.34 in 10.0 mi West 13.8 mph - N/A   Clear
10:35 AM 46.4 °F 41.9 °F 17.6 °F 32% 30.35 in 10.0 mi WNW 9.2 mph 16.1 mph N/A   Clear
10:55 AM 48.2 °F - 21.2 °F 34% 30.35 in 10.0 mi WNW 8.1 mph - N/A   Clear
11:15 AM 48.2 °F - 21.2 °F 34% 30.34 in 10.0 mi NW 9.2 mph 17.3 mph N/A   Clear
11:35 AM 48.2 °F - 21.2 °F 34% 30.33 in 10.0 mi WNW 8.1 mph - N/A   Clear
11:55 AM 48.2 °F - 21.2 °F 34% 30.32 in 10.0 mi WNW 9.2 mph - N/A   Clear
12:15 PM 48.2 °F - 21.2 °F 34% 30.31 in 10.0 mi West 8.1 mph - N/A   Clear
12:35 PM 50.0 °F - 21.2 °F 32% 30.31 in 10.0 mi West 11.5 mph 16.1 mph N/A   Clear
12:55 PM 50.0 °F - 21.2 °F 32% 30.31 in 10.0 mi NNW 11.5 mph - N/A   Clear
1:15 PM 50.0 °F - 23.0 °F 35% 30.31 in 10.0 mi NNW 8.1 mph 26.5 mph N/A   Clear
1:35 PM 50.0 °F - 23.0 °F 35% 30.31 in 10.0 mi WNW 9.2 mph - N/A   Clear
1:55 PM 50.0 °F - 23.0 °F 35% 30.31 in 10.0 mi NW 10.4 mph - N/A   Clear
2:15 PM 50.0 °F - 23.0 °F 35% 30.31 in 10.0 mi WNW 12.7 mph 18.4 mph N/A   Clear
2:35 PM 50.0 °F - 23.0 °F 35% 30.31 in 10.0 mi WNW 8.1 mph - N/A   Clear
2:55 PM 50.0 °F - 23.0 °F 35% 30.31 in 10.0 mi NNW 8.1 mph - N/A   Clear
3:15 PM 48.2 °F - 23.0 °F 37% 30.31 in 10.0 mi West 6.9 mph - N/A   Clear
3:35 PM 48.2 °F - 21.2 °F 34% 30.31 in 10.0 mi West 5.8 mph - N/A   Clear
3:55 PM 42.8 °F - 23.0 °F 46% 30.32 in 10.0 mi Calm Calm - N/A   Clear
4:15 PM 42.8 °F - 23.0 °F 46% 30.32 in 10.0 mi Calm Calm - N/A   Clear
4:35 PM 39.2 °F 35.0 °F 23.0 °F 52% 30.33 in 10.0 mi WSW 5.8 mph - N/A   Clear
4:55 PM 37.4 °F - 23.0 °F 56% 30.34 in 10.0 mi Calm Calm - N/A   Clear
5:15 PM 35.6 °F 31.7 °F 21.2 °F 56% 30.35 in 10.0 mi NW 4.6 mph - N/A   Clear
5:35 PM 33.8 °F 30.8 °F 23.0 °F 65% 30.36 in 10.0 mi NW 3.5 mph - N/A   Clear
5:55 PM 33.8 °F 28.6 °F 23.0 °F 65% 30.37 in 10.0 mi WNW 5.8 mph - N/A   Clear
6:15 PM 32.0 °F 24.8 °F 23.0 °F 69% 30.38 in 10.0 mi West 8.1 mph - N/A   Clear
6:35 PM 32.0 °F 26.4 °F 23.0 °F 69% 30.38 in 10.0 mi WNW 5.8 mph - N/A   Clear
6:55 PM 32.0 °F 25.6 °F 23.0 °F 69% 30.39 in 10.0 mi West 6.9 mph - N/A   Clear
7:15 PM 32.0 °F 24.8 °F 24.8 °F 75% 30.39 in 10.0 mi West 8.1 mph - N/A   Clear
7:35 PM 32.0 °F 26.4 °F 24.8 °F 75% 30.39 in 10.0 mi NW 5.8 mph - N/A   Clear
8:15 PM 30.2 °F - 23.0 °F 75% 30.41 in 10.0 mi Calm Calm - N/A   Clear
8:35 PM 28.4 °F 24.6 °F 23.0 °F 80% 30.41 in 10.0 mi North 3.5 mph - N/A   Clear
8:55 PM 28.4 °F - 23.0 °F 80% 30.41 in 10.0 mi Calm Calm - N/A   Clear
9:15 PM 30.2 °F 21.9 °F 23.0 °F 75% 30.41 in 10.0 mi West 9.2 mph - N/A   Clear
9:35 PM 28.4 °F 19.7 °F 23.0 °F 80% 30.42 in 10.0 mi West 9.2 mph - N/A   Clear
9:55 PM 26.6 °F 22.6 °F 23.0 °F 86% 30.43 in 10.0 mi North 3.5 mph - N/A   Clear
10:15 PM 28.4 °F 23.3 °F 23.0 °F 80% 30.43 in 10.0 mi North 4.6 mph - N/A   Clear
10:35 PM 26.6 °F - 23.0 °F 86% 30.43 in 10.0 mi Calm Calm - N/A   Clear
10:55 PM 26.6 °F 21.2 °F 23.0 °F 86% 30.43 in 10.0 mi NNW 4.6 mph - N/A   Clear
11:15 PM 26.6 °F - 23.0 °F 86% 30.44 in 10.0 mi North - - N/A   Clear
11:35 PM 26.6 °F 20.0 °F 21.2 °F 80% 30.44 in 10.0 mi North 5.8 mph - N/A   Clear
11:55 PM 26.6 °F 19.1 °F 23.0 °F 86% 30.43 in 10.0 mi West 6.9 mph - N/A   Clear